Terminal Aerodrome Forecast
Issued by NWS

Home | Current Version | Previous Version | Text Only | Print | Product List | Glossary Off
Versions: 1 2 3 4 5 6 7 8 9 10 11 12 13 14 15

896
FTUS43 KABR 262327
TAFMBG
TAF
KMBG 262327Z 2700/2724 16005KT P6SM VCSH BKN120
     FM270300 16004KT P6SM OVC120
     FM271200 VRB03KT 5SM BR SCT200
     FM271400 VRB03KT 6SM BR SCT200
     FM272000 13006KT P6SM SCT100=

USA.gov is the U.S. government's official web portal to all federal, state and local government web resources and services.